createdAt,value
2023-07-24T00:00:41.699Z,17.31
2023-07-24T00:01:44.493Z,17.35
2023-07-24T00:02:46.833Z,17.23
2023-07-24T00:03:49.525Z,17.22
2023-07-24T00:04:52.398Z,17.31
2023-07-24T00:07:11.062Z,17.60
2023-07-24T00:08:14.305Z,17.56
2023-07-24T00:09:17.275Z,17.55
2023-07-24T00:10:19.981Z,17.48
2023-07-24T00:11:22.603Z,17.51
2023-07-24T00:12:25.517Z,17.45
2023-07-24T00:13:27.819Z,17.38
2023-07-24T00:14:30.201Z,17.34
2023-07-24T00:15:32.547Z,17.33
2023-07-24T00:16:35.230Z,17.36
2023-07-24T00:17:37.699Z,17.38
2023-07-24T00:18:40.269Z,17.37
2023-07-24T00:19:42.668Z,17.38
2023-07-24T00:20:45.122Z,17.31
2023-07-24T00:21:47.434Z,17.24
2023-07-24T00:22:49.599Z,17.24
2023-07-24T00:23:52.722Z,17.28
2023-07-24T00:24:55.057Z,17.32
2023-07-24T00:25:57.394Z,17.40
2023-07-24T00:26:59.786Z,17.40
2023-07-24T00:28:02.147Z,17.43
2023-07-24T00:29:04.498Z,17.43
2023-07-24T00:30:08.991Z,17.30
2023-07-24T00:31:12.541Z,17.25
2023-07-24T00:32:15.140Z,17.25
2023-07-24T00:33:17.330Z,17.31
2023-07-24T00:34:20.938Z,17.33
2023-07-24T00:35:23.664Z,17.42
2023-07-24T00:36:26.932Z,17.48
2023-07-24T00:37:29.638Z,17.54
2023-07-24T00:38:32.156Z,17.63
2023-07-24T00:39:34.407Z,17.59
2023-07-24T00:40:37.232Z,17.61
2023-07-24T00:41:42.186Z,17.58
2023-07-24T00:42:50.059Z,17.56
2023-07-24T00:43:52.378Z,17.47
2023-07-24T00:44:54.616Z,17.38
2023-07-24T00:45:58.139Z,17.35
2023-07-24T00:47:01.205Z,17.29
2023-07-24T00:48:03.681Z,17.25
2023-07-24T00:49:06.054Z,17.20
2023-07-24T00:50:10.414Z,17.24
2023-07-24T00:51:12.874Z,17.13
2023-07-24T00:52:16.269Z,17.07
2023-07-24T00:53:20.345Z,17.05
2023-07-24T00:54:24.512Z,17.03
2023-07-24T00:55:27.422Z,17.05
2023-07-24T00:56:33.193Z,17.13
2023-07-24T00:57:35.808Z,17.17
2023-07-24T00:58:39.145Z,17.20
2023-07-24T00:59:42.774Z,17.23
2023-07-24T01:00:45.801Z,17.15
2023-07-24T01:01:48.594Z,17.07
2023-07-24T01:02:52.124Z,17.09
2023-07-24T01:03:57.881Z,16.99
2023-07-24T01:05:02.183Z,16.93
2023-07-24T01:06:05.197Z,16.79
2023-07-24T01:07:07.574Z,16.74
2023-07-24T01:08:10.620Z,16.80
2023-07-24T01:09:14.084Z,16.82
2023-07-24T01:10:17.081Z,16.87
2023-07-24T01:11:23.605Z,16.86
2023-07-24T01:12:42.149Z,16.90
2023-07-24T01:13:50.961Z,16.86
2023-07-24T01:14:56.930Z,16.82
2023-07-24T01:16:09.350Z,16.81
2023-07-24T01:17:15.375Z,16.82
2023-07-24T01:18:19.898Z,16.77
2023-07-24T01:19:40.396Z,16.71
2023-07-24T01:20:46.378Z,16.79
2023-07-24T01:22:02.081Z,16.87
2023-07-24T01:23:41.951Z,16.80
2023-07-24T01:26:08.441Z,16.94
2023-07-24T01:27:10.895Z,16.82
2023-07-24T01:28:13.758Z,16.82
2023-07-24T01:29:16.176Z,16.71
2023-07-24T01:30:21.914Z,16.70
2023-07-24T01:31:25.233Z,16.68
2023-07-24T01:32:28.387Z,16.56
2023-07-24T01:33:32.295Z,16.59
2023-07-24T01:34:34.616Z,16.64
2023-07-24T01:35:39.193Z,16.70
2023-07-24T01:36:41.819Z,16.69
2023-07-24T01:37:45.692Z,16.75
2023-07-24T01:38:50.316Z,16.74
2023-07-24T01:39:55.025Z,16.86
2023-07-24T01:40:58.215Z,16.92
2023-07-24T01:42:02.809Z,16.95
2023-07-24T01:43:05.286Z,16.93
2023-07-24T01:44:07.965Z,16.97
2023-07-24T01:45:11.984Z,17.02
2023-07-24T01:46:14.464Z,17.06
2023-07-24T01:47:16.810Z,17.12
2023-07-24T01:48:19.146Z,17.17
2023-07-24T01:49:21.412Z,17.17
2023-07-24T01:50:23.818Z,17.23
2023-07-24T01:51:28.170Z,17.28
2023-07-24T01:52:30.649Z,17.35
2023-07-24T01:53:33.242Z,17.43
2023-07-24T01:54:36.131Z,17.45
2023-07-24T01:55:39.316Z,17.47
2023-07-24T01:56:42.003Z,17.40
2023-07-24T01:57:44.592Z,17.44
2023-07-24T01:58:46.841Z,17.49
2023-07-24T01:59:49.743Z,17.47
2023-07-24T02:00:56.446Z,17.46
2023-07-24T02:01:58.692Z,17.43
2023-07-24T02:03:02.058Z,17.39
2023-07-24T02:04:04.830Z,17.22
2023-07-24T02:05:09.394Z,17.23
2023-07-24T02:06:11.930Z,17.19
2023-07-24T02:07:14.684Z,17.17
2023-07-24T02:08:17.148Z,17.13
2023-07-24T02:09:20.313Z,17.15
2023-07-24T02:10:22.849Z,17.01
2023-07-24T02:11:27.659Z,16.92
2023-07-24T02:12:33.078Z,16.92
2023-07-24T02:13:35.641Z,16.83
2023-07-24T02:14:38.241Z,16.84
2023-07-24T02:15:41.124Z,16.73
2023-07-24T02:16:44.795Z,16.58
2023-07-24T02:17:47.378Z,16.36
2023-07-24T02:18:51.042Z,16.30
2023-07-24T02:19:53.512Z,16.18
2023-07-24T02:20:57.267Z,16.03
2023-07-24T02:22:00.795Z,16.02
2023-07-24T02:23:02.940Z,15.90
2023-07-24T02:24:05.716Z,15.87
2023-07-24T02:25:08.955Z,15.88
2023-07-24T02:26:11.767Z,15.86
2023-07-24T02:27:17.413Z,15.87
2023-07-24T02:28:19.954Z,15.95
2023-07-24T02:29:23.112Z,15.93
2023-07-24T02:30:26.374Z,15.90
2023-07-24T02:31:28.761Z,15.91
2023-07-24T02:32:32.989Z,15.90
2023-07-24T02:33:35.426Z,15.81
2023-07-24T02:34:37.818Z,15.77
2023-07-24T02:35:41.828Z,15.80
2023-07-24T02:36:44.258Z,15.77
2023-07-24T02:37:46.666Z,15.80
2023-07-24T02:38:48.939Z,15.83
2023-07-24T02:39:53.905Z,15.77
2023-07-24T02:40:56.880Z,15.76
2023-07-24T02:41:59.139Z,15.76
2023-07-24T02:43:01.456Z,15.84
2023-07-24T02:44:05.664Z,15.89
2023-07-24T02:45:10.662Z,15.90
2023-07-24T02:46:13.305Z,15.87
2023-07-24T02:47:15.595Z,15.81
2023-07-24T02:48:18.434Z,15.72
2023-07-24T02:49:20.696Z,15.78
2023-07-24T02:50:23.499Z,15.72
2023-07-24T02:51:26.261Z,15.69
2023-07-24T02:52:28.697Z,15.66
2023-07-24T02:53:31.125Z,15.75
2023-07-24T02:54:33.507Z,15.72
2023-07-24T02:55:36.089Z,15.66
2023-07-24T02:56:39.682Z,15.64
2023-07-24T02:57:43.102Z,15.67
2023-07-24T02:58:46.884Z,15.72
2023-07-24T02:59:49.685Z,15.83
2023-07-24T03:00:52.020Z,15.96
2023-07-24T03:01:54.285Z,16.05
2023-07-24T03:02:56.629Z,16.00
2023-07-24T03:03:58.813Z,15.99
2023-07-24T03:05:02.195Z,16.04
2023-07-24T03:06:04.836Z,16.08
2023-07-24T03:07:08.116Z,15.91
2023-07-24T03:08:11.553Z,15.86
2023-07-24T03:09:13.904Z,15.98
2023-07-24T03:10:16.655Z,16.09
2023-07-24T03:11:18.989Z,16.16
2023-07-24T03:12:21.472Z,16.18
2023-07-24T03:13:24.795Z,16.17
2023-07-24T03:14:27.403Z,16.18
2023-07-24T03:15:29.965Z,16.19
2023-07-24T03:16:32.796Z,16.15
2023-07-24T03:17:35.091Z,16.13
2023-07-24T03:18:37.409Z,16.14
2023-07-24T03:19:39.685Z,16.21
2023-07-24T03:20:43.563Z,16.26
2023-07-24T03:21:46.006Z,16.28
2023-07-24T03:22:48.415Z,16.31
2023-07-24T03:23:51.397Z,16.11
2023-07-24T03:24:53.897Z,16.00
2023-07-24T03:25:56.113Z,16.06
2023-07-24T03:27:01.181Z,15.97
2023-07-24T03:28:04.438Z,15.92
2023-07-24T03:29:07.428Z,15.97
2023-07-24T03:30:10.485Z,15.95
2023-07-24T03:31:13.093Z,15.97
2023-07-24T03:32:15.437Z,16.16
2023-07-24T03:33:17.824Z,16.16
2023-07-24T03:34:20.382Z,16.28
2023-07-24T03:35:22.574Z,16.36
2023-07-24T03:36:25.334Z,16.43
2023-07-24T03:37:27.790Z,16.47
2023-07-24T03:38:29.993Z,16.40
2023-07-24T03:39:32.528Z,16.57
2023-07-24T03:40:35.573Z,16.47
2023-07-24T03:42:52.022Z,16.39
2023-07-24T03:43:54.177Z,16.39
2023-07-24T03:44:59.289Z,16.49
2023-07-24T03:46:02.300Z,16.68
2023-07-24T03:47:04.770Z,16.79
2023-07-24T03:48:07.474Z,17.00
2023-07-24T03:49:09.954Z,17.09
2023-07-24T03:50:12.722Z,17.12
2023-07-24T03:51:15.747Z,17.27
2023-07-24T03:52:18.463Z,17.27
2023-07-24T03:53:20.779Z,17.17
2023-07-24T03:54:23.012Z,17.31
2023-07-24T03:55:25.448Z,17.42
2023-07-24T03:56:28.174Z,17.37
2023-07-24T03:57:30.813Z,17.37
2023-07-24T03:58:34.194Z,17.45
2023-07-24T03:59:36.844Z,17.48
2023-07-24T04:00:40.462Z,17.55
2023-07-24T04:01:44.554Z,17.43
2023-07-24T04:02:49.277Z,17.50
2023-07-24T04:03:52.826Z,17.50
2023-07-24T04:04:55.109Z,17.47
2023-07-24T04:05:57.414Z,17.55
2023-07-24T04:07:00.833Z,17.44
2023-07-24T04:08:03.650Z,17.36
2023-07-24T04:09:06.427Z,17.37
2023-07-24T04:10:09.789Z,17.41
2023-07-24T04:11:12.516Z,17.55
2023-07-24T04:12:15.092Z,17.67
2023-07-24T04:13:18.334Z,17.73
2023-07-24T04:14:21.771Z,17.84
2023-07-24T04:15:26.029Z,17.92
2023-07-24T04:16:29.590Z,17.98
2023-07-24T04:17:32.945Z,17.97
2023-07-24T04:18:35.344Z,18.07
2023-07-24T04:19:37.776Z,18.09
2023-07-24T04:20:40.061Z,18.07
2023-07-24T04:21:42.927Z,18.12
2023-07-24T04:22:46.636Z,18.20
2023-07-24T04:23:51.373Z,18.18
2023-07-24T04:24:54.071Z,18.25
2023-07-24T04:25:57.621Z,18.25
2023-07-24T04:27:01.400Z,18.27
2023-07-24T04:28:03.846Z,18.17
2023-07-24T04:29:07.700Z,18.22
2023-07-24T04:30:13.682Z,18.26
2023-07-24T04:31:17.664Z,18.31
2023-07-24T04:32:20.643Z,18.51
2023-07-24T04:33:24.995Z,18.51
2023-07-24T04:34:27.253Z,18.47
2023-07-24T04:35:29.552Z,18.56
2023-07-24T04:36:32.317Z,18.54
2023-07-24T04:37:35.123Z,18.59
2023-07-24T04:38:37.472Z,18.62
2023-07-24T04:39:40.442Z,18.61
2023-07-24T04:40:45.952Z,18.42
2023-07-24T04:41:48.719Z,18.46
2023-07-24T04:42:51.239Z,18.53
2023-07-24T04:43:53.664Z,18.60
2023-07-24T04:44:56.200Z,18.57
2023-07-24T04:45:58.456Z,18.59
2023-07-24T04:47:02.176Z,18.48
2023-07-24T04:48:05.804Z,18.51
2023-07-24T04:50:27.111Z,18.54
2023-07-24T04:51:29.437Z,18.36
2023-07-24T04:52:31.794Z,18.38
2023-07-24T04:53:34.522Z,18.48
2023-07-24T04:54:36.695Z,18.55
2023-07-24T04:55:39.288Z,18.60
2023-07-24T04:56:41.809Z,18.71
2023-07-24T04:57:44.093Z,18.74
2023-07-24T04:58:46.406Z,18.75
2023-07-24T04:59:49.217Z,18.74
2023-07-24T05:00:51.782Z,18.70
2023-07-24T05:01:54.085Z,18.73
2023-07-24T05:02:57.563Z,18.81
2023-07-24T05:04:00.025Z,18.86
2023-07-24T05:05:02.757Z,18.89
2023-07-24T05:06:05.737Z,18.96
2023-07-24T05:07:08.634Z,19.02
2023-07-24T05:08:11.938Z,19.08
2023-07-24T05:09:15.009Z,19.08
2023-07-24T05:10:17.685Z,19.13
2023-07-24T05:11:21.238Z,19.23
2023-07-24T05:12:26.057Z,19.19
2023-07-24T05:13:28.415Z,19.07
2023-07-24T05:14:30.605Z,19.06
2023-07-24T05:15:33.021Z,19.12
2023-07-24T05:16:35.540Z,19.03
2023-07-24T05:17:37.937Z,19.03
2023-07-24T05:18:40.978Z,19.11
2023-07-24T05:19:43.658Z,19.09
2023-07-24T05:20:53.669Z,19.14
2023-07-24T05:21:56.343Z,19.09
2023-07-24T05:22:58.633Z,19.19
2023-07-24T05:24:03.203Z,19.18
2023-07-24T05:25:07.098Z,19.22
2023-07-24T05:26:10.266Z,19.19
2023-07-24T05:27:13.028Z,19.25
2023-07-24T05:28:15.199Z,19.26
2023-07-24T05:29:17.454Z,19.36
2023-07-24T05:30:19.857Z,19.39
2023-07-24T05:31:22.283Z,19.52
2023-07-24T05:32:25.576Z,19.45
2023-07-24T05:33:28.214Z,19.56
2023-07-24T05:34:30.768Z,19.55
2023-07-24T05:35:33.017Z,19.50
2023-07-24T05:36:35.474Z,19.51
2023-07-24T05:37:37.795Z,19.41
2023-07-24T05:38:39.853Z,19.46
2023-07-24T05:39:42.126Z,19.42
2023-07-24T05:40:44.798Z,19.41
2023-07-24T05:41:49.631Z,19.40
2023-07-24T05:42:52.180Z,19.39
2023-07-24T05:43:55.973Z,19.42
2023-07-24T05:44:58.639Z,19.46
2023-07-24T05:46:02.394Z,19.50
2023-07-24T05:47:04.938Z,19.41
2023-07-24T05:48:07.298Z,19.44
2023-07-24T05:49:09.762Z,19.56
2023-07-24T05:50:14.150Z,19.56
2023-07-24T05:51:16.737Z,19.57
2023-07-24T05:52:20.136Z,19.53
2023-07-24T05:53:22.580Z,19.49
2023-07-24T05:54:25.085Z,19.46
2023-07-24T05:55:27.600Z,19.48
2023-07-24T05:56:30.234Z,19.53
2023-07-24T05:57:33.080Z,19.59
2023-07-24T05:58:35.635Z,19.63
2023-07-24T05:59:38.032Z,19.60
2023-07-24T06:00:40.408Z,19.69
2023-07-24T06:01:43.342Z,19.79
2023-07-24T06:02:45.879Z,19.95
2023-07-24T06:03:48.240Z,20.02
2023-07-24T06:04:50.751Z,20.03
2023-07-24T06:05:54.405Z,20.11
2023-07-24T06:06:56.910Z,20.20
2023-07-24T06:07:59.312Z,20.24
2023-07-24T06:09:01.784Z,20.09
2023-07-24T06:10:05.900Z,20.07
2023-07-24T06:11:08.988Z,20.15
2023-07-24T06:12:11.467Z,20.18
2023-07-24T06:13:13.859Z,20.26
2023-07-24T06:14:17.180Z,20.31
2023-07-24T06:15:19.618Z,20.42
2023-07-24T06:16:22.592Z,20.43
2023-07-24T06:17:25.205Z,20.39
2023-07-24T06:18:27.646Z,20.36
2023-07-24T06:19:30.120Z,20.44
2023-07-24T06:20:33.416Z,20.53
2023-07-24T06:21:36.281Z,20.52
2023-07-24T06:22:38.654Z,20.52
2023-07-24T06:23:41.309Z,20.53
2023-07-24T06:24:44.105Z,20.53
2023-07-24T06:25:46.676Z,20.57
2023-07-24T06:26:49.514Z,20.67
2023-07-24T06:27:52.012Z,20.71
2023-07-24T06:28:54.736Z,20.75
2023-07-24T06:30:12.945Z,20.79
2023-07-24T06:31:03.901Z,20.83
2023-07-24T06:32:08.556Z,20.84
2023-07-24T06:33:11.204Z,20.90
2023-07-24T06:34:14.221Z,20.87
2023-07-24T06:35:16.462Z,20.84
2023-07-24T06:36:19.778Z,20.87
2023-07-24T06:37:23.091Z,20.86
2023-07-24T06:38:27.003Z,20.90
2023-07-24T06:39:30.262Z,20.94
2023-07-24T06:40:33.550Z,20.98
2023-07-24T06:41:36.066Z,21.01
2023-07-24T06:42:38.870Z,21.11
2023-07-24T06:43:44.087Z,21.11
2023-07-24T06:44:46.568Z,21.15
2023-07-24T06:45:48.980Z,21.14
2023-07-24T06:46:51.523Z,21.18
2023-07-24T06:47:56.082Z,21.20
2023-07-24T06:48:58.580Z,21.27
2023-07-24T06:50:00.977Z,21.32
2023-07-24T06:51:06.443Z,21.36
2023-07-24T06:52:08.829Z,21.36
2023-07-24T06:53:11.009Z,21.39
2023-07-24T06:54:14.294Z,21.44
2023-07-24T06:55:17.709Z,21.48
2023-07-24T06:56:20.653Z,21.51
2023-07-24T06:57:25.146Z,21.51
2023-07-24T06:58:27.654Z,21.58
2023-07-24T06:59:30.054Z,21.60
2023-07-24T07:00:32.640Z,21.61
2023-07-24T07:01:34.967Z,21.66
2023-07-24T07:02:37.077Z,21.68
2023-07-24T07:03:39.450Z,21.65
2023-07-24T07:04:43.141Z,21.68
2023-07-24T07:05:45.619Z,21.72
2023-07-24T07:06:48.361Z,21.76
2023-07-24T07:07:51.422Z,21.82
2023-07-24T07:08:53.978Z,21.80
2023-07-24T07:09:56.480Z,21.82
2023-07-24T07:11:01.733Z,21.85
2023-07-24T07:12:04.527Z,21.89
2023-07-24T07:13:07.234Z,21.85
2023-07-24T07:14:10.183Z,21.89
2023-07-24T07:15:13.506Z,21.88
2023-07-24T07:16:18.065Z,21.85
2023-07-24T07:17:20.565Z,21.91
2023-07-24T07:18:22.896Z,21.96
2023-07-24T07:19:25.121Z,22.00
2023-07-24T07:20:27.392Z,22.06
2023-07-24T07:21:29.775Z,22.04
2023-07-24T07:22:32.052Z,22.05
2023-07-24T07:23:34.834Z,22.09
2023-07-24T07:24:37.063Z,22.02
2023-07-24T07:25:40.120Z,22.05
2023-07-24T07:26:42.654Z,22.13
2023-07-24T07:27:46.567Z,22.18
2023-07-24T07:28:48.943Z,22.18
2023-07-24T07:29:51.295Z,22.23
2023-07-24T07:30:54.665Z,22.24
2023-07-24T07:31:57.199Z,22.27
2023-07-24T07:32:59.675Z,22.30
2023-07-24T07:34:01.955Z,22.30
2023-07-24T07:35:05.118Z,22.32
2023-07-24T07:36:07.873Z,22.34
2023-07-24T07:37:10.669Z,22.41
2023-07-24T07:38:14.284Z,22.46
2023-07-24T07:39:16.580Z,22.53
2023-07-24T07:40:18.949Z,22.54
2023-07-24T07:41:21.501Z,22.55
2023-07-24T07:42:24.299Z,22.62
2023-07-24T07:43:26.898Z,22.59
2023-07-24T07:44:29.106Z,22.60
2023-07-24T07:45:31.519Z,22.63
2023-07-24T07:46:34.147Z,22.64
2023-07-24T07:47:36.436Z,22.69
2023-07-24T07:48:39.739Z,22.77
2023-07-24T07:49:43.462Z,22.83
2023-07-24T07:50:49.432Z,22.86
2023-07-24T07:51:51.635Z,22.92
2023-07-24T07:52:54.829Z,22.92
2023-07-24T07:53:57.665Z,22.96
2023-07-24T07:55:00.951Z,23.06
2023-07-24T07:56:03.665Z,23.04
2023-07-24T07:57:06.594Z,23.01
2023-07-24T07:58:09.830Z,23.07
2023-07-24T07:59:12.291Z,23.13
2023-07-24T08:00:15.968Z,23.22
2023-07-24T08:01:19.590Z,23.23
2023-07-24T08:02:22.804Z,23.18
2023-07-24T08:03:25.750Z,23.24
2023-07-24T08:04:29.193Z,23.30
2023-07-24T08:05:32.524Z,23.32
2023-07-24T08:06:35.165Z,23.36
2023-07-24T08:07:37.667Z,23.27
2023-07-24T08:08:41.014Z,23.27
2023-07-24T08:09:44.497Z,23.48
2023-07-24T08:10:47.046Z,23.39
2023-07-24T08:11:49.405Z,23.39
2023-07-24T08:12:51.889Z,23.39
2023-07-24T08:13:54.677Z,23.35
2023-07-24T08:14:57.119Z,23.35
2023-07-24T08:16:00.110Z,23.45
2023-07-24T08:17:03.857Z,23.44
2023-07-24T08:18:07.253Z,23.55
2023-07-24T08:19:10.565Z,23.65
2023-07-24T08:20:13.547Z,23.75
2023-07-24T08:21:16.196Z,23.73
2023-07-24T08:22:20.480Z,23.70
2023-07-24T08:23:23.091Z,23.72
2023-07-24T08:24:26.372Z,23.79
2023-07-24T08:25:28.998Z,23.84
2023-07-24T08:26:31.922Z,23.86
2023-07-24T08:27:45.318Z,23.87
2023-07-24T08:28:43.392Z,23.79
2023-07-24T08:29:45.729Z,23.72
2023-07-24T08:31:01.213Z,23.68
2023-07-24T08:32:05.897Z,23.68
2023-07-24T08:33:08.324Z,23.69
2023-07-24T08:34:11.055Z,23.77
2023-07-24T08:35:13.611Z,23.85
2023-07-24T08:36:17.018Z,23.91
2023-07-24T08:37:20.728Z,23.95
2023-07-24T08:38:25.309Z,24.02
2023-07-24T08:39:28.289Z,24.04
2023-07-24T08:40:30.823Z,24.12
2023-07-24T08:41:35.606Z,24.17
2023-07-24T08:42:43.542Z,24.19
2023-07-24T08:43:46.284Z,24.21
2023-07-24T08:44:49.179Z,24.24
2023-07-24T08:45:53.145Z,24.24
2023-07-24T08:46:56.647Z,24.21
2023-07-24T08:48:00.369Z,24.26
2023-07-24T08:49:02.948Z,24.19
2023-07-24T08:50:07.520Z,24.13
2023-07-24T08:51:11.641Z,24.08
2023-07-24T08:52:26.914Z,24.06
2023-07-24T08:53:21.739Z,24.14
2023-07-24T08:54:27.170Z,24.20
2023-07-24T08:55:31.390Z,24.19
2023-07-24T08:56:34.170Z,24.23
2023-07-24T08:57:37.229Z,24.31
2023-07-24T08:58:42.558Z,24.32
2023-07-24T08:59:44.960Z,24.35
2023-07-24T09:00:48.390Z,24.35
2023-07-24T09:01:51.278Z,24.39
2023-07-24T09:02:53.792Z,24.47
2023-07-24T09:03:58.260Z,24.38
2023-07-24T09:05:01.243Z,24.43
2023-07-24T09:06:10.752Z,24.50
2023-07-24T09:07:15.068Z,24.35
2023-07-24T09:08:17.782Z,24.40
2023-07-24T09:09:21.274Z,24.51
2023-07-24T09:10:27.858Z,24.58
2023-07-24T09:11:30.476Z,24.67
2023-07-24T09:12:33.058Z,24.67
2023-07-24T09:13:42.450Z,24.75
2023-07-24T09:14:46.299Z,24.77
2023-07-24T09:15:48.951Z,24.85
2023-07-24T09:17:11.948Z,24.83
2023-07-24T09:18:14.661Z,24.89
2023-07-24T09:19:26.636Z,24.86
2023-07-24T09:21:33.430Z,24.99
2023-07-24T09:22:40.275Z,25.11
2023-07-24T09:23:41.451Z,25.11
2023-07-24T09:24:51.588Z,25.08
2023-07-24T09:25:54.312Z,25.12
2023-07-24T09:26:58.854Z,25.13
2023-07-24T09:28:01.049Z,25.12
2023-07-24T09:29:03.517Z,25.14
2023-07-24T09:30:16.434Z,25.14
2023-07-24T09:31:18.982Z,25.09
2023-07-24T09:32:26.382Z,25.00
2023-07-24T09:33:40.634Z,24.99
2023-07-24T09:34:44.003Z,24.89
2023-07-24T09:35:48.829Z,24.90
2023-07-24T09:36:51.377Z,24.95
2023-07-24T09:38:11.887Z,24.98
2023-07-24T09:39:14.301Z,24.98
2023-07-24T09:40:16.790Z,25.09
2023-07-24T09:41:23.354Z,25.05
2023-07-24T09:42:35.135Z,25.10
2023-07-24T09:43:39.654Z,25.07
2023-07-24T09:44:42.678Z,25.19
2023-07-24T09:45:46.490Z,25.19
2023-07-24T09:47:06.547Z,25.27
2023-07-24T09:48:00.302Z,25.32
2023-07-24T09:50:08.158Z,25.29
2023-07-24T09:51:15.888Z,25.22
2023-07-24T09:52:21.152Z,25.26
2023-07-24T09:53:36.272Z,25.34
2023-07-24T09:54:45.771Z,25.36
2023-07-24T09:55:54.550Z,25.35
2023-07-24T09:57:07.205Z,25.28
2023-07-24T09:58:04.745Z,25.40
2023-07-24T09:59:07.691Z,25.33
2023-07-24T10:00:13.377Z,25.27
2023-07-24T10:01:18.178Z,25.29
2023-07-24T10:02:22.069Z,25.32
2023-07-24T10:03:25.223Z,25.33
2023-07-24T10:04:28.656Z,25.28
2023-07-24T10:05:35.060Z,25.30
2023-07-24T10:06:38.307Z,25.42
2023-07-24T10:07:42.264Z,25.56
2023-07-24T10:08:48.080Z,25.46
2023-07-24T10:09:51.733Z,25.46
2023-07-24T10:10:55.219Z,25.45
2023-07-24T10:11:58.587Z,25.45
2023-07-24T10:13:01.428Z,25.45
2023-07-24T10:14:04.801Z,25.47
2023-07-24T10:15:08.767Z,25.51
2023-07-24T10:16:12.493Z,25.55
2023-07-24T10:17:18.863Z,25.67
2023-07-24T10:18:23.882Z,25.79
2023-07-24T10:19:39.094Z,25.84
2023-07-24T10:20:42.728Z,25.89
2023-07-24T10:21:47.615Z,25.92
2023-07-24T10:22:50.406Z,25.99
2023-07-24T10:23:53.033Z,26.11
2023-07-24T10:24:57.915Z,26.21
2023-07-24T10:26:06.997Z,26.24
2023-07-24T10:27:10.434Z,26.23
2023-07-24T10:28:16.102Z,26.18
2023-07-24T10:29:20.556Z,26.24
2023-07-24T10:30:34.801Z,26.17
2023-07-24T10:31:31.795Z,26.16
2023-07-24T10:32:36.467Z,26.24
2023-07-24T10:33:42.652Z,26.29
2023-07-24T10:34:45.867Z,26.41
2023-07-24T10:35:52.221Z,26.50
2023-07-24T10:36:58.232Z,26.50
2023-07-24T10:38:02.572Z,26.38
2023-07-24T10:39:08.949Z,26.35
2023-07-24T10:40:19.918Z,26.48
2023-07-24T10:41:22.959Z,26.37
2023-07-24T10:42:26.395Z,26.36
2023-07-24T10:43:28.542Z,26.44
2023-07-24T10:44:32.467Z,26.44
2023-07-24T10:46:55.604Z,26.63
2023-07-24T10:47:57.926Z,26.71
2023-07-24T10:49:02.930Z,26.82
2023-07-24T10:50:07.269Z,26.76
2023-07-24T10:51:10.794Z,26.49
2023-07-24T10:52:13.106Z,26.48
2023-07-24T10:53:17.519Z,26.65
2023-07-24T10:54:22.537Z,26.78
2023-07-24T10:55:25.544Z,26.67
2023-07-24T10:56:30.607Z,26.56
2023-07-24T10:57:33.042Z,26.60
2023-07-24T10:58:37.234Z,26.65
2023-07-24T10:59:40.089Z,26.78
2023-07-24T11:00:45.410Z,26.83
2023-07-24T11:01:48.263Z,26.86
2023-07-24T11:02:54.319Z,27.04
2023-07-24T11:03:56.686Z,26.91
2023-07-24T11:05:01.758Z,26.93
2023-07-24T11:06:04.674Z,27.13
2023-07-24T11:07:08.137Z,27.25
2023-07-24T11:08:16.510Z,27.34
2023-07-24T11:09:19.075Z,27.48
2023-07-24T11:10:23.668Z,27.60
2023-07-24T11:12:41.819Z,27.56
2023-07-24T11:13:44.037Z,27.48
2023-07-24T11:14:50.652Z,27.62
2023-07-24T11:15:54.503Z,27.47
2023-07-24T11:16:57.301Z,27.29
2023-07-24T11:18:02.438Z,27.38
2023-07-24T11:19:04.872Z,27.35
2023-07-24T11:20:10.436Z,27.38
2023-07-24T11:21:13.606Z,27.65
2023-07-24T11:22:16.160Z,27.67
2023-07-24T11:23:18.906Z,27.48
2023-07-24T11:24:21.251Z,27.34
2023-07-24T11:25:25.262Z,27.61
2023-07-24T11:26:28.738Z,27.69
2023-07-24T11:27:31.133Z,27.68
2023-07-24T11:28:37.852Z,27.58
2023-07-24T11:29:40.101Z,27.54
2023-07-24T11:30:44.427Z,27.46
2023-07-24T11:31:47.282Z,27.58
2023-07-24T11:32:50.554Z,27.70
2023-07-24T11:33:55.212Z,27.65
2023-07-24T11:34:57.833Z,27.60
2023-07-24T11:36:01.553Z,27.75
2023-07-24T11:37:05.512Z,27.70
2023-07-24T11:38:12.212Z,27.62
2023-07-24T11:39:15.006Z,27.53
2023-07-24T11:40:20.413Z,27.64
2023-07-24T11:41:22.893Z,27.54
2023-07-24T11:42:28.008Z,27.54
2023-07-24T11:43:30.503Z,27.47
2023-07-24T11:44:33.002Z,27.53
2023-07-24T11:45:46.333Z,27.67
2023-07-24T11:46:49.064Z,27.88
2023-07-24T11:47:54.524Z,28.21
2023-07-24T11:48:57.689Z,28.25
2023-07-24T11:50:02.928Z,27.89
2023-07-24T11:51:05.125Z,27.82
2023-07-24T11:52:08.487Z,27.96
2023-07-24T11:53:23.482Z,28.13
2023-07-24T11:54:25.811Z,28.18
2023-07-24T11:55:33.693Z,28.44
2023-07-24T11:56:36.256Z,28.70
2023-07-24T11:57:38.853Z,28.92
2023-07-24T11:58:42.390Z,28.84
2023-07-24T11:59:45.976Z,28.84
2023-07-24T12:00:52.069Z,28.94
2023-07-24T12:01:55.062Z,28.84
2023-07-24T12:03:01.867Z,29.19
2023-07-24T12:04:05.841Z,29.21
2023-07-24T12:05:10.565Z,29.40
2023-07-24T12:06:17.348Z,29.31
2023-07-24T12:07:20.828Z,29.28
2023-07-24T12:08:34.511Z,28.84
2023-07-24T12:09:38.651Z,28.92
2023-07-24T12:10:41.814Z,28.51
2023-07-24T12:11:46.996Z,28.64
2023-07-24T12:12:49.352Z,28.70
2023-07-24T12:13:51.787Z,28.48
2023-07-24T12:14:54.247Z,28.47
2023-07-24T12:15:56.878Z,28.47
2023-07-24T12:17:03.338Z,28.57
2023-07-24T12:18:06.568Z,28.75
2023-07-24T12:19:09.065Z,28.76
2023-07-24T12:20:12.640Z,28.78
2023-07-24T12:21:15.037Z,28.92
2023-07-24T12:22:19.573Z,29.06
2023-07-24T12:23:21.898Z,28.88
2023-07-24T12:24:24.247Z,28.67
2023-07-24T12:25:26.682Z,28.75
2023-07-24T12:26:29.142Z,28.73
2023-07-24T12:27:31.804Z,28.59
2023-07-24T12:28:34.368Z,28.45
2023-07-24T12:29:37.264Z,28.45
2023-07-24T12:30:41.184Z,28.34
2023-07-24T12:31:44.111Z,28.45
2023-07-24T12:32:46.686Z,28.56
2023-07-24T12:33:49.021Z,28.90
2023-07-24T12:34:53.855Z,29.03
2023-07-24T12:35:57.399Z,28.87
2023-07-24T12:37:01.024Z,29.08
2023-07-24T12:38:03.359Z,29.36
2023-07-24T12:39:05.699Z,29.59
2023-07-24T12:40:10.510Z,29.46
2023-07-24T12:41:13.235Z,29.08
2023-07-24T12:42:16.877Z,29.12
2023-07-24T12:43:19.313Z,29.16
2023-07-24T12:44:21.956Z,29.15
2023-07-24T12:45:24.216Z,29.22
2023-07-24T12:46:26.567Z,29.13
2023-07-24T12:47:29.199Z,29.20
2023-07-24T12:48:32.236Z,29.05
2023-07-24T12:49:34.962Z,29.07
2023-07-24T12:50:37.579Z,28.79
2023-07-24T12:51:39.938Z,28.79
2023-07-24T12:52:42.348Z,28.94
2023-07-24T12:53:56.274Z,29.01
2023-07-24T12:55:00.811Z,28.94
2023-07-24T12:55:56.756Z,28.94
2023-07-24T12:56:59.563Z,29.00
2023-07-24T12:58:04.302Z,29.33
2023-07-24T12:59:07.205Z,29.62
2023-07-24T13:00:10.603Z,30.02
2023-07-24T13:01:14.018Z,29.78
2023-07-24T13:02:16.379Z,30.10
2023-07-24T13:03:21.942Z,30.10
2023-07-24T13:04:25.116Z,29.93
2023-07-24T13:05:28.533Z,29.88
2023-07-24T13:06:32.747Z,30.06
2023-07-24T13:07:36.586Z,30.06
2023-07-24T13:08:38.930Z,30.28
2023-07-24T13:09:41.905Z,30.02
2023-07-24T13:10:45.420Z,30.11
2023-07-24T13:11:50.473Z,30.31
2023-07-24T13:12:53.083Z,30.16
2023-07-24T13:13:56.377Z,29.78
2023-07-24T13:14:59.341Z,29.75
2023-07-24T13:16:01.726Z,30.09
2023-07-24T13:17:04.672Z,30.21
2023-07-24T13:18:22.014Z,30.12
2023-07-24T13:19:12.432Z,29.79
2023-07-24T13:20:15.801Z,29.61
2023-07-24T13:21:23.467Z,29.80
2023-07-24T13:22:26.438Z,29.67
2023-07-24T13:23:28.568Z,29.69
2023-07-24T13:24:30.838Z,29.93
2023-07-24T13:25:33.267Z,30.15
2023-07-24T13:26:35.540Z,30.25
2023-07-24T13:27:37.846Z,30.36
2023-07-24T13:28:41.220Z,30.27
2023-07-24T13:29:44.655Z,30.42
2023-07-24T13:30:47.327Z,30.46
2023-07-24T13:31:53.705Z,30.44
2023-07-24T13:32:57.284Z,30.55
2023-07-24T13:34:00.530Z,30.43
2023-07-24T13:35:03.297Z,30.21
2023-07-24T13:36:05.769Z,30.49
2023-07-24T13:37:08.375Z,30.47
2023-07-24T13:38:10.701Z,30.77
2023-07-24T13:39:13.335Z,30.86
2023-07-24T13:40:16.081Z,30.97
2023-07-24T13:41:18.982Z,31.16
2023-07-24T13:42:22.720Z,30.94
2023-07-24T13:43:25.551Z,30.75
2023-07-24T13:44:27.830Z,31.11
2023-07-24T13:45:30.258Z,31.35
2023-07-24T13:46:32.786Z,31.56
2023-07-24T13:47:35.332Z,31.72
2023-07-24T13:48:38.519Z,31.80
2023-07-24T13:49:41.011Z,31.41